Time;durP1;ratioP1;P1;durP2;ratioP2;P2;SDS_P1;SDS_P2;PMS_P1;PMS_P2;Temp;Humidity;BMP_temperature;BMP_pressure;BME280_temperature;BME280_humidity;BME280_pressure;Samples;Min_cycle;Max_cycle;Signal;HPM_P1;HPM_P2
2022/01/09 02:03:13;;;;;;;;;;;;;;;-5.49;100.00;99207.25;5202226;23;20300;-84
2022/01/09 02:05:42;;;;;;;;;;;;;;;-5.50;100.00;99204.94;5050657;28;19917;-83
2022/01/09 02:08:08;;;;;;;;;;;;;;;-5.66;100.00;99197.59;5014144;28;19925;-84
2022/01/09 02:10:33;;;;;;;;;;;;;;;-5.72;100.00;99201.72;5033002;28;19916;-83
2022/01/09 02:12:59;;;;;;;;;;;;;;;-5.76;100.00;99194.66;5015939;28;19964;-84
2022/01/09 02:15:25;;;;;;;;;;;;;;;-5.83;100.00;99195.28;5032996;28;19990;-84
2022/01/09 02:17:50;;;;;;;;;;;;;;;-5.84;100.00;99195.63;5032743;28;19920;-90
2022/01/09 02:20:15;;;;;;;;;;;;;;;-5.86;100.00;99187.13;5016766;28;19916;-91
2022/01/09 02:22:41;;;;;;;;;;;;;;;-5.85;100.00;99184.03;5050792;28;20288;-90
2022/01/09 02:25:06;;;;;;;;;;;;;;;-5.85;100.00;99194.03;5050597;28;19917;-90
2022/01/09 04:01:29;;;;;;;;;;;;;;;-5.81;100.00;99055.25;5018749;28;19925;-89
2022/01/09 04:03:55;;;;;;;;;;;;;;;-5.77;100.00;99050.72;4987689;28;19922;-89
2022/01/09 04:06:20;;;;;;;;;;;;;;;-5.73;100.00;99051.56;4989889;28;19929;-89
2022/01/09 04:08:47;;;;;;;;;;;;;;;-5.70;100.00;99048.16;4992649;28;19918;-90
2022/01/09 04:11:14;;;;;;;;;;;;;;;-5.67;100.00;99050.19;4992650;28;19965;-89
2022/01/09 04:13:39;;;;;;;;;;;;;;;-5.68;100.00;99043.19;4976768;28;19913;-90
2022/01/09 04:16:05;;;;;;;;;;;;;;;-5.69;100.00;99041.63;4992610;28;19924;-84
2022/01/09 04:18:31;;;;;;;;;;;;;;;-5.67;100.00;99039.38;4991522;28;20434;-84
2022/01/09 04:20:57;;;;;;;;;;;;;;;-5.65;100.00;99025.50;4993773;28;20003;-84
2022/01/09 04:23:22;;;;;;;;;;;;;;;-5.63;100.00;99017.81;4992537;28;19956;-83
2022/01/09 04:25:48;;;;;;;;;;;;;;;-5.63;100.00;99022.44;4992631;28;19972;-84
2022/01/09 04:28:13;;;;;;;;;;;;;;;-5.63;100.00;99022.44;4992167;28;19964;-83
2022/01/09 04:30:39;;;;;;;;;;;;;;;-5.62;100.00;99013.22;4993360;28;19918;-83
2022/01/09 04:33:04;;;;;;;;;;;;;;;-5.60;100.00;99010.94;4992231;28;19928;-84
2022/01/09 04:35:30;;;;;;;;;;;;;;;-5.62;100.00;99007.81;4993733;28;20012;-84
2022/01/09 04:37:55;;;;;;;;;;;;;;;-5.62;100.00;99008.59;4978826;28;19918;-84
2022/01/09 04:40:21;;;;;;;;;;;;;;;-5.58;100.00;99003.25;4974182;28;19918;-83
2022/01/09 04:42:54;;;;;;;;;;;;;;;-5.59;100.00;99001.69;4972697;28;19972;-83
2022/01/09 04:45:20;;;;;;;;;;;;;;;-5.60;100.00;99002.81;4988302;28;19926;-84
2022/01/09 04:47:47;;;;;;;;;;;;;;;-5.56;100.00;98998.28;4972658;28;19965;-84
2022/01/09 04:50:21;;;;;;;;;;;;;;;-5.58;100.00;98997.84;4987738;28;20006;-84
2022/01/09 04:52:46;;;;;;;;;;;;;;;-5.58;100.00;99009.44;4987405;28;19918;-84
2022/01/09 04:55:12;;;;;;;;;;;;;;;-5.57;100.00;99011.00;4972053;28;19921;-91
2022/01/09 04:57:37;;;;;;;;;;;;;;;-5.55;100.00;99016.06;4970603;28;20384;-90
2022/01/09 05:00:04;;;;;;;;;;;;;;;-5.56;100.00;99007.16;4970096;28;20479;-89
2022/01/09 05:02:29;;;;;;;;;;;;;;;-5.58;100.00;98997.84;4972900;28;19940;-90
2022/01/09 05:04:55;;;;;;;;;;;;;;;-5.58;100.00;99004.03;4986795;28;20375;-89
2022/01/09 05:07:20;;;;;;;;;;;;;;;-5.55;100.00;99005.25;4971746;28;20280;-90
2022/01/09 05:09:45;;;;;;;;;;;;;;;-5.55;100.00;99019.53;4971541;28;20319;-88
2022/01/09 05:12:11;;;;;;;;;;;;;;;-5.56;100.00;99017.97;4986278;28;19921;-83
2022/01/09 05:14:36;;;;;;;;;;;;;;;-5.55;100.00;99024.94;4954226;28;19925;-84
2022/01/09 05:17:02;;;;;;;;;;;;;;;-5.53;100.00;99025.34;4986437;28;19925;-83
2022/01/09 05:19:33;;;;;;;;;;;;;;;-5.59;100.00;99037.59;4971284;28;19914;-84
2022/01/09 05:21:59;;;;;;;;;;;;;;;-5.59;100.00;99028.72;4971946;28;19922;-84
2022/01/09 05:24:24;;;;;;;;;;;;;;;-5.64;100.00;99021.66;4972141;28;19945;-84
2022/01/09 05:26:50;;;;;;;;;;;;;;;-5.68;100.00;99010.00;4971903;28;20480;-84
2022/01/09 05:29:15;;;;;;;;;;;;;;;-5.71;100.00;99010.72;4988003;28;19922;-84
2022/01/09 05:31:41;;;;;;;;;;;;;;;-5.71;100.00;99005.31;4992681;28;19965;-84
2022/01/09 05:34:06;;;;;;;;;;;;;;;-5.73;100.00;99002.16;4992020;28;19936;-84
2022/01/09 05:36:31;;;;;;;;;;;;;;;-5.78;100.00;98999.75;4975247;28;19968;-83
2022/01/09 05:38:57;;;;;;;;;;;;;;;-5.80;100.00;98997.41;4992211;28;19918;-84
2022/01/09 05:41:22;;;;;;;;;;;;;;;-5.85;100.00;98999.59;4974816;28;19968;-83
2022/01/09 05:43:48;;;;;;;;;;;;;;;-5.86;100.00;98995.38;4974904;28;19921;-83
2022/01/09 05:46:14;;;;;;;;;;;;;;;-5.89;100.00;98982.56;4992136;28;19972;-83
2022/01/09 05:48:39;;;;;;;;;;;;;;;-5.91;100.00;98988.34;4992165;28;19924;-89
2022/01/09 05:51:04;;;;;;;;;;;;;;;-5.92;100.00;98980.56;4992159;28;20302;-83
2022/01/09 05:53:30;;;;;;;;;;;;;;;-5.92;100.00;98986.75;4958607;28;19917;-83
2022/01/09 05:55:55;;;;;;;;;;;;;;;-5.90;100.00;98965.56;4991011;28;20375;-83
2022/01/09 05:58:20;;;;;;;;;;;;;;;-5.88;100.00;98978.72;4971129;28;19938;-83
2022/01/09 06:00:46;;;;;;;;;;;;;;;-5.89;100.00;98977.94;4974414;28;19917;-83
2022/01/09 06:03:11;;;;;;;;;;;;;;;-5.94;100.00;98972.81;4991450;28;19928;-83
2022/01/09 06:05:37;;;;;;;;;;;;;;;-5.95;100.00;98970.47;4974857;28;19941;-83
2022/01/09 06:08:02;;;;;;;;;;;;;;;-5.96;100.00;98960.81;4991853;28;19928;-83
2022/01/09 06:10:27;;;;;;;;;;;;;;;-5.94;100.00;98958.56;4974950;28;19917;-89
2022/01/09 06:12:53;;;;;;;;;;;;;;;-5.94;100.00;98964.72;4991988;28;19980;-89
2022/01/09 06:15:18;;;;;;;;;;;;;;;-5.92;100.00;98961.66;4974511;28;20290;-89
2022/01/09 06:17:44;;;;;;;;;;;;;;;-5.90;100.00;98965.56;4990750;28;19933;-90
2022/01/09 06:20:11;;;;;;;;;;;;;;;-5.88;100.00;98968.72;4958231;28;20461;-90
2022/01/09 06:22:36;;;;;;;;;;;;;;;-5.86;100.00;98961.00;4992112;28;19918;-89
2022/01/09 06:25:02;;;;;;;;;;;;;;;-5.82;100.00;98961.84;4974495;28;19914;-89
2022/01/09 06:27:28;;;;;;;;;;;;;;;-5.80;100.00;98964.22;4974744;28;19922;-84
2022/01/09 06:29:53;;;;;;;;;;;;;;;-5.77;100.00;98963.50;4971121;28;19914;-83
2022/01/09 06:32:18;;;;;;;;;;;;;;;-5.75;100.00;98959.31;4972149;28;20376;-83
2022/01/09 06:34:44;;;;;;;;;;;;;;;-5.75;100.00;98963.94;4972337;28;19918;-83
2022/01/09 06:37:12;;;;;;;;;;;;;;;-5.73;100.00;98946.22;4967067;28;19926;-83
2022/01/09 06:39:42;;;;;;;;;;;;;;;-5.68;100.00;98955.97;4956900;28;19914;-83
2022/01/09 06:42:08;;;;;;;;;;;;;;;-5.67;100.00;98958.34;4989252;28;19926;-83
2022/01/09 06:44:33;;;;;;;;;;;;;;;-5.66;100.00;98957.16;4975866;28;19914;-84
2022/01/09 06:46:58;;;;;;;;;;;;;;;-5.62;100.00;98964.59;4975012;28;19918;-84
2022/01/09 06:49:24;;;;;;;;;;;;;;;-5.61;100.00;98955.31;4975911;28;19925;-83
2022/01/09 06:51:49;;;;;;;;;;;;;;;-5.63;100.00;98968.41;4974911;28;19918;-84
2022/01/09 06:54:15;;;;;;;;;;;;;;;-5.60;100.00;98960.38;4974334;28;19922;-83
2022/01/09 06:56:40;;;;;;;;;;;;;;;-5.59;100.00;98948.44;4990827;28;19918;-84
2022/01/09 06:59:06;;;;;;;;;;;;;;;-5.59;100.00;98944.94;4975683;28;20738;-83
2022/01/09 07:01:31;;;;;;;;;;;;;;;-5.59;100.00;98947.66;4977877;28;19969;-84
2022/01/09 07:03:57;;;;;;;;;;;;;;;-5.53;100.00;98952.41;4955120;28;19973;-84
2022/01/09 07:06:22;;;;;;;;;;;;;;;-5.46;100.00;98957.19;4964405;28;19918;-84
2022/01/09 07:08:47;;;;;;;;;;;;;;;-5.44;100.00;98960.28;4990766;28;20507;-83
2022/01/09 07:11:13;;;;;;;;;;;;;;;-5.37;100.00;98955.03;4975484;28;19970;-83
2022/01/09 07:13:38;;;;;;;;;;;;;;;-5.32;100.00;98963.63;4990453;28;19972;-83
2022/01/09 07:16:04;;;;;;;;;;;;;;;-5.31;100.00;98967.91;4975565;28;19914;-83
2022/01/09 07:18:29;;;;;;;;;;;;;;;-5.33;100.00;98961.28;4975029;28;19945;-83
2022/01/09 07:20:55;;;;;;;;;;;;;;;-5.33;100.00;98955.88;4990586;28;20368;-83
2022/01/09 07:23:20;;;;;;;;;;;;;;;-5.32;100.00;98957.44;4975129;28;20029;-83
2022/01/09 07:25:45;;;;;;;;;;;;;;;-5.30;100.00;98957.88;4974541;28;20398;-84
2022/01/09 07:28:11;;;;;;;;;;;;;;;-5.26;100.00;98961.44;4989954;28;19968;-83
2022/01/09 07:30:36;;;;;;;;;;;;;;;-5.28;100.00;98956.38;4975642;28;19941;-84
2022/01/09 07:33:03;;;;;;;;;;;;;;;-5.29;100.00;98956.72;4973720;28;19918;-84
2022/01/09 07:35:28;;;;;;;;;;;;;;;-5.30;100.00;98949.78;4975075;28;20040;-83
2022/01/09 07:37:54;;;;;;;;;;;;;;;-5.32;100.00;98947.41;4975189;28;19957;-83
2022/01/09 07:40:20;;;;;;;;;;;;;;;-5.32;100.00;98949.34;4975095;28;20032;-84
2022/01/09 07:42:46;;;;;;;;;;;;;;;-5.29;100.00;98945.91;4975332;28;19922;-84
2022/01/09 07:45:12;;;;;;;;;;;;;;;-5.28;100.00;98942.06;4973298;28;19914;-83
2022/01/09 07:47:38;;;;;;;;;;;;;;;-5.27;100.00;98943.66;4975319;28;20009;-83
2022/01/09 07:50:04;;;;;;;;;;;;;;;-5.28;100.00;98937.44;4968357;28;20401;-83
2022/01/09 07:52:29;;;;;;;;;;;;;;;-5.26;100.00;98942.50;4969384;28;20275;-83
2022/01/09 07:54:55;;;;;;;;;;;;;;;-5.25;100.00;98931.31;4989056;28;19943;-83
2022/01/09 07:57:21;;;;;;;;;;;;;;;-5.23;100.00;98933.69;4974632;28;20455;-83
2022/01/09 07:59:46;;;;;;;;;;;;;;;-5.19;100.00;98939.94;4974734;28;19929;-83
2022/01/09 08:02:12;;;;;;;;;;;;;;;-5.20;100.00;98935.66;4964863;28;19922;-89
2022/01/09 08:04:37;;;;;;;;;;;;;;;-5.17;100.00;98937.63;4967750;28;19918;-89
2022/01/09 08:07:03;;;;;;;;;;;;;;;-5.15;100.00;98940.78;4974748;28;19968;-88
2022/01/09 08:09:29;;;;;;;;;;;;;;;-5.09;100.00;98941.28;4989293;28;19989;-89
2022/01/09 08:11:55;;;;;;;;;;;;;;;-5.06;100.00;98943.25;4989387;28;19918;-89
2022/01/09 08:14:21;;;;;;;;;;;;;;;-5.04;100.00;98955.25;4974302;28;20409;-89
2022/01/09 08:16:47;;;;;;;;;;;;;;;-5.02;100.00;98950.28;4974367;28;19918;-88
2022/01/09 08:19:12;;;;;;;;;;;;;;;-5.01;100.00;98954.53;4988489;28;19918;-88
2022/01/09 08:21:38;;;;;;;;;;;;;;;-4.97;100.00;98946.50;4972988;28;19945;-89
2022/01/09 08:24:03;;;;;;;;;;;;;;;-4.96;100.00;98954.25;4974910;28;19914;-89
2022/01/09 08:26:28;;;;;;;;;;;;;;;-4.90;100.00;98952.81;4954572;28;19925;-89
2022/01/09 08:28:54;;;;;;;;;;;;;;;-4.81;100.00;98952.56;4969494;28;19918;-89
2022/01/09 08:31:20;;;;;;;;;;;;;;;-4.77;100.00;98948.75;4966504;28;20368;-89
2022/01/09 08:33:45;;;;;;;;;;;;;;;-4.68;100.00;98958.56;4987162;28;19918;-89
2022/01/09 08:36:11;;;;;;;;;;;;;;;-4.56;100.00;98961.06;4972575;28;19997;-88
2022/01/09 08:38:36;;;;;;;;;;;;;;;-4.46;100.00;98958.56;4987240;28;19934;-89
2022/01/09 08:41:01;;;;;;;;;;;;;;;-4.34;100.00;98963.78;4986930;28;20368;-89
2022/01/09 08:43:27;;;;;;;;;;;;;;;-4.28;100.00;98966.94;4970894;28;19914;-89
2022/01/09 08:45:52;;;;;;;;;;;;;;;-4.19;100.00;98959.34;4971066;28;20299;-89
2022/01/09 08:48:17;;;;;;;;;;;;;;;-4.20;100.00;98952.34;4971128;28;19964;-88
2022/01/09 08:50:43;;;;;;;;;;;;;;;-4.21;100.00;98945.41;4974215;28;19913;-89
2022/01/09 08:53:09;;;;;;;;;;;;;;;-4.21;100.00;98950.81;4974508;28;19918;-89
2022/01/09 08:55:34;;;;;;;;;;;;;;;-4.17;100.00;98950.84;4973507;28;20346;-88
2022/01/09 08:58:00;;;;;;;;;;;;;;;-4.11;100.00;98946.66;4958151;28;19918;-89
2022/01/09 09:00:25;;;;;;;;;;;;;;;-4.01;100.00;98949.53;4973700;28;20371;-83
2022/01/09 09:02:51;;;;;;;;;;;;;;;-3.93;100.00;98955.84;4974263;28;20346;-83
2022/01/09 09:05:16;;;;;;;;;;;;;;;-3.82;100.00;98951.34;4990203;28;20016;-83
2022/01/09 09:07:42;;;;;;;;;;;;;;;-3.84;100.00;98948.97;4974341;28;19914;-83
2022/01/09 09:10:07;;;;;;;;;;;;;;;-3.83;100.00;98947.84;4975658;28;19973;-83
2022/01/09 09:12:33;;;;;;;;;;;;;;;-3.81;100.00;98940.13;4970928;28;19941;-83
2022/01/09 09:14:59;;;;;;;;;;;;;;;-3.76;100.00;98931.66;4971900;28;20253;-83
2022/01/09 09:17:25;;;;;;;;;;;;;;;-3.70;100.00;98931.34;4979806;28;19953;-83
2022/01/09 09:19:51;;;;;;;;;;;;;;;-3.61;100.00;98939.97;4982258;28;19973;-83
2022/01/09 09:22:16;;;;;;;;;;;;;;;-3.63;100.00;98940.34;4962459;28;19944;-83
2022/01/09 09:24:42;;;;;;;;;;;;;;;-3.55;100.00;98941.19;4979970;28;19914;-83
2022/01/09 09:27:07;;;;;;;;;;;;;;;-3.49;100.00;98937.81;4961684;28;20288;-83
2022/01/09 09:29:32;;;;;;;;;;;;;;;-3.42;100.00;98937.09;4963364;28;20009;-83
2022/01/09 09:31:58;;;;;;;;;;;;;;;-3.24;100.00;98940.78;4960887;28;19992;-83
2022/01/09 09:34:23;;;;;;;;;;;;;;;-3.13;100.00;98938.97;4970365;28;20302;-84
2022/01/09 09:36:50;;;;;;;;;;;;;;;-3.08;100.00;98930.50;4957838;28;20004;-83
2022/01/09 09:39:15;;;;;;;;;;;;;;;-3.01;100.00;98935.22;4976502;28;20429;-83
2022/01/09 09:41:41;;;;;;;;;;;;;;;-2.91;100.00;98935.28;4968344;28;19918;-84
2022/01/09 09:44:09;;;;;;;;;;;;;;;-2.80;100.00;98929.19;4964455;28;19924;-84
2022/01/09 09:46:35;;;;;;;;;;;;;;;-2.60;100.00;98927.81;4972790;28;19918;-83
2022/01/09 09:49:00;;;;;;;;;;;;;;;-2.48;100.00;98919.38;4971223;28;19914;-84
2022/01/09 09:51:27;;;;;;;;;;;;;;;-2.42;100.00;98929.50;4968976;28;19933;-84
2022/01/09 09:53:52;;;;;;;;;;;;;;;-2.45;100.00;98924.03;4965419;28;19941;-84
2022/01/09 09:56:18;;;;;;;;;;;;;;;-2.43;100.00;98917.09;4958786;28;19923;-84
2022/01/09 09:58:43;;;;;;;;;;;;;;;-2.29;100.00;98927.25;4970446;28;19925;-84
2022/01/09 10:01:21;;;;;;;;;;;;;;;-2.17;100.00;98912.59;4971515;28;19925;-84
2022/01/09 10:03:52;;;;;;;;;;;;;;;-2.01;100.00;98916.56;4974420;28;19922;-85
2022/01/09 10:06:36;;;;;;;;;;;;;;;-1.89;100.00;98910.00;4971167;28;19918;-83
2022/01/09 10:09:11;;;;;;;;;;;;;;;-1.86;100.00;98906.56;4972301;28;20462;-85
2022/01/09 10:11:55;;;;;;;;;;;;;;;-1.85;100.00;98902.66;4987380;28;19918;-86
2022/01/09 10:14:21;;;;;;;;;;;;;;;-1.83;100.00;98905.00;4972423;28;19921;-87
2022/01/09 10:17:05;;;;;;;;;;;;;;;-1.79;100.00;98895.72;4974088;28;19918;-86
2022/01/09 10:19:54;;;;;;;;;;;;;;;-1.78;100.00;98899.22;4973741;28;19918;-85
2022/01/09 10:22:24;;;;;;;;;;;;;;;-1.76;100.00;98899.59;4945937;28;19918;-86
2022/01/09 10:24:50;;;;;;;;;;;;;;;-1.69;100.00;98899.59;4966136;28;20387;-86
2022/01/09 10:27:27;;;;;;;;;;;;;;;-1.74;100.00;98891.84;4979113;28;19914;-86
2022/01/09 10:29:53;;;;;;;;;;;;;;;-1.69;100.00;98894.97;4978757;28;19918;-86
2022/01/09 10:32:20;;;;;;;;;;;;;;;-1.54;100.00;98902.03;4978046;28;20366;-86
2022/01/09 10:35:02;;;;;;;;;;;;;;;-1.42;100.00;98904.38;4995614;28;19917;-88
2022/01/09 10:37:28;;;;;;;;;;;;;;;-1.40;99.53;98895.81;4978338;28;19925;-87
2022/01/09 10:39:57;;;;;;;;;;;;;;;-1.30;99.11;98903.25;4995881;28;19918;-87
2022/01/09 10:42:22;;;;;;;;;;;;;;;-1.18;99.62;98905.63;4978086;28;20008;-87
2022/01/09 10:44:48;;;;;;;;;;;;;;;-1.11;99.00;98902.91;4978338;28;20008;-87
2022/01/09 10:47:15;;;;;;;;;;;;;;;-1.03;98.33;98909.91;4977754;28;19925;-88
2022/01/09 10:49:42;;;;;;;;;;;;;;;-1.17;96.55;98912.59;4978414;28;19917;-88
2022/01/09 10:52:20;;;;;;;;;;;;;;;-1.28;97.63;98905.56;4978156;28;19978;-88
2022/01/09 10:54:46;;;;;;;;;;;;;;;-1.25;97.88;98908.28;4993603;28;19918;-88
2022/01/09 10:57:16;;;;;;;;;;;;;;;-1.30;97.81;98903.25;4962194;28;19921;-88
2022/01/09 10:59:42;;;;;;;;;;;;;;;-1.25;97.78;98897.41;4962074;28;19964;-88
2022/01/09 11:02:07;;;;;;;;;;;;;;;-1.17;97.54;98890.06;4977458;28;20418;-88
2022/01/09 11:04:33;;;;;;;;;;;;;;;-1.16;97.92;98888.88;4977273;28;19922;-88
2022/01/09 11:06:59;;;;;;;;;;;;;;;-1.07;98.34;98887.34;4978026;28;19917;-88
2022/01/09 11:09:26;;;;;;;;;;;;;;;-1.08;97.45;98874.91;4994940;28;20064;-88
2022/01/09 11:11:52;;;;;;;;;;;;;;;-1.00;97.29;98870.25;4978334;28;19918;-88
2022/01/09 11:14:20;;;;;;;;;;;;;;;-1.11;97.73;98864.78;4977468;28;19909;-88
2022/01/09 11:16:51;;;;;;;;;;;;;;;-1.23;98.63;98870.63;4976626;28;19921;-88
2022/01/09 11:19:18;;;;;;;;;;;;;;;-1.24;98.98;98870.97;4969834;28;19940;-88
2022/01/09 11:21:44;;;;;;;;;;;;;;;-1.23;98.90;98867.88;4971237;28;20451;-88
2022/01/09 11:24:18;;;;;;;;;;;;;;;-1.16;99.57;98869.84;4970963;28;19918;-88
2022/01/09 11:26:47;;;;;;;;;;;;;;;-1.16;99.30;98857.00;4970595;28;20306;-88
2022/01/09 11:29:12;;;;;;;;;;;;;;;-1.15;98.80;98864.00;4955882;28;19964;-89
2022/01/09 11:31:38;;;;;;;;;;;;;;;-1.14;98.34;98871.03;4970831;28;19949;-88
2022/01/09 11:34:07;;;;;;;;;;;;;;;-1.13;98.37;98864.38;4970348;28;19960;-86
2022/01/09 11:36:44;;;;;;;;;;;;;;;-1.08;97.67;98890.44;4955714;29;19924;-88
2022/01/09 11:39:20;;;;;;;;;;;;;;;-1.05;97.66;98884.25;4980286;28;19926;-88
2022/01/09 11:41:46;;;;;;;;;;;;;;;-0.97;97.92;98881.13;4957831;28;19918;-88
2022/01/09 11:44:13;;;;;;;;;;;;;;;-0.87;97.56;98885.03;4989828;28;19984;-88
2022/01/09 11:46:55;;;;;;;;;;;;;;;-0.87;96.76;98885.03;4973315;28;19964;-88
2022/01/09 11:49:22;;;;;;;;;;;;;;;-0.91;97.17;98878.81;4989243;28;19918;-87
2022/01/09 11:51:51;;;;;;;;;;;;;;;-0.84;97.66;98878.03;4989737;28;19921;-87
2022/01/09 11:54:18;;;;;;;;;;;;;;;-0.73;97.58;98878.81;4989166;28;20012;-87
2022/01/09 11:56:44;;;;;;;;;;;;;;;-0.79;96.43;98867.53;4989461;28;19960;-87
2022/01/09 11:59:28;;;;;;;;;;;;;;;-0.81;96.24;98877.25;4974759;28;19914;-88
2022/01/09 12:02:06;;;;;;;;;;;;;;;-0.72;96.11;98869.47;4976995;28;19918;-90
2022/01/09 12:04:38;;;;;;;;;;;;;;;-0.74;95.24;98872.59;4993144;28;19918;-88
2022/01/09 12:07:13;;;;;;;;;;;;;;;-0.72;94.92;98862.06;4973492;28;19918;-89
2022/01/09 12:09:41;;;;;;;;;;;;;;;-0.68;95.13;98856.63;4988506;28;19957;-88
2022/01/09 12:12:07;;;;;;;;;;;;;;;-0.70;94.13;98856.25;4975143;28;19957;-85
2022/01/09 12:14:42;;;;;;;;;;;;;;;-0.68;94.38;98843.00;4972778;28;19918;-89
2022/01/09 12:17:08;;;;;;;;;;;;;;;-0.63;94.02;98850.78;4988785;28;20012;-87
2022/01/09 12:19:52;;;;;;;;;;;;;;;-0.61;94.26;98849.25;4972764;28;20379;-88
2022/01/09 12:22:37;;;;;;;;;;;;;;;-0.54;94.23;98848.44;4973110;28;20303;-88
2022/01/09 12:25:03;;;;;;;;;;;;;;;-0.57;93.72;98847.28;4973020;28;20443;-88
2022/01/09 12:27:35;;;;;;;;;;;;;;;-0.65;94.06;98853.91;4972813;28;19926;-87
2022/01/09 12:30:00;;;;;;;;;;;;;;;-0.68;94.52;98845.72;4972868;28;19918;-85
2022/01/09 12:32:43;;;;;;;;;;;;;;;-0.64;94.45;98849.22;4956332;28;20466;-86
2022/01/09 12:35:12;;;;;;;;;;;;;;;-0.57;94.55;98852.75;4974023;28;19956;-85
2022/01/09 12:37:43;;;;;;;;;;;;;;;-0.47;94.22;98856.59;4972716;28;19918;-84
2022/01/09 12:40:10;;;;;;;;;;;;;;;-0.43;93.83;98856.59;4988070;28;20422;-84
2022/01/09 12:42:35;;;;;;;;;;;;;;;-0.44;93.09;98853.09;4988061;28;19924;-83
2022/01/09 12:45:01;;;;;;;;;;;;;;;-0.40;93.02;98851.13;4972756;28;20000;-83
2022/01/09 12:47:37;;;;;;;;;;;;;;;-0.38;92.95;98854.25;4973397;28;19917;-83
2022/01/09 12:50:02;;;;;;;;;;;;;;;-0.44;92.43;98847.63;4975676;28;19972;-88
2022/01/09 12:52:28;;;;;;;;;;;;;;;-0.40;92.95;98837.50;4962898;28;19922;-87
2022/01/09 12:55:06;;;;;;;;;;;;;;;-0.35;91.95;98849.97;4963168;28;20048;-87
2022/01/09 12:57:58;;;;;;;;;;;;;;;-0.34;91.55;98849.59;4964395;28;19928;-87
2022/01/09 13:00:27;;;;;;;;;;;;;;;-0.41;91.79;98855.06;4957582;28;20428;-87
2022/01/09 13:02:53;;;;;;;;;;;;;;;-0.41;91.80;98857.00;4972701;28;19921;-88
2022/01/09 13:05:22;;;;;;;;;;;;;;;-0.39;92.45;98849.19;4962491;28;19960;-87
2022/01/09 13:08:08;;;;;;;;;;;;;;;-0.36;92.20;98851.91;4977294;28;20299;-89
2022/01/09 13:10:34;;;;;;;;;;;;;;;-0.31;91.87;98845.28;4963671;28;19941;-88
2022/01/09 13:12:59;;;;;;;;;;;;;;;-0.30;91.07;98847.63;4963275;28;19918;-88
2022/01/09 13:15:34;;;;;;;;;;;;;;;-0.29;91.34;98849.19;4962420;28;19965;-88
2022/01/09 13:18:00;;;;;;;;;;;;;;;-0.27;91.15;98846.84;4976228;28;19925;-87
2022/01/09 13:20:25;;;;;;;;;;;;;;;-0.24;91.57;98835.13;4981728;28;19918;-87
2022/01/09 13:23:09;;;;;;;;;;;;;;;-0.24;90.89;98835.13;4962950;28;20383;-87
2022/01/09 13:25:44;;;;;;;;;;;;;;;-0.22;91.29;98848.38;4953745;29;19918;-87
2022/01/09 13:28:17;;;;;;;;;;;;;;;-0.17;91.77;98851.50;4962963;28;19921;-82
2022/01/09 13:30:43;;;;;;;;;;;;;;;-0.14;91.78;98855.38;4973976;28;19977;-82
2022/01/09 13:33:09;;;;;;;;;;;;;;;-0.08;91.75;98854.56;4972753;28;19918;-83
2022/01/09 13:35:34;;;;;;;;;;;;;;;-0.09;88.05;98852.25;4971553;28;19932;-83
2022/01/09 13:38:00;;;;;;;;;;;;;;;-0.03;87.60;98854.16;4971824;28;20399;-83
2022/01/09 13:40:25;;;;;;;;;;;;;;;-0.02;85.66;98853.00;4955447;28;20295;-83
2022/01/09 13:42:51;;;;;;;;;;;;;;;0.04;85.87;98860.78;4971792;28;19929;-83
2022/01/09 13:45:20;;;;;;;;;;;;;;;0.05;87.62;98859.56;4971464;28;19976;-83
2022/01/09 13:47:46;;;;;;;;;;;;;;;0.03;88.84;98853.75;4972716;28;19925;-83
2022/01/09 13:50:12;;;;;;;;;;;;;;;0.08;89.06;98861.53;4971209;28;20492;-83
2022/01/09 13:52:37;;;;;;;;;;;;;;;0.02;89.16;98857.66;4971611;28;19926;-83
2022/01/09 13:55:06;;;;;;;;;;;;;;;-0.05;89.07;98861.97;4972555;28;20284;-83
2022/01/09 13:57:31;;;;;;;;;;;;;;;-0.07;90.13;98858.84;4972647;28;19961;-83
2022/01/09 14:00:02;;;;;;;;;;;;;;;-0.10;90.29;98862.38;4974188;28;20410;-83
2022/01/09 14:02:39;;;;;;;;;;;;;;;-0.09;90.35;98858.47;4961222;28;20392;-83
2022/01/09 14:05:24;;;;;;;;;;;;;;;-0.04;90.48;98868.19;4976111;28;19962;-87
2022/01/09 14:07:53;;;;;;;;;;;;;;;-0.05;90.00;98864.69;4979117;28;20364;-88
2022/01/09 14:10:19;;;;;;;;;;;;;;;-0.04;90.20;98868.94;4961047;28;19921;-87
2022/01/09 14:12:45;;;;;;;;;;;;;;;-0.02;90.29;98866.63;4960242;28;19918;-87
2022/01/09 14:15:18;;;;;;;;;;;;;;;-0.01;89.78;98876.38;4960863;28;19918;-87
2022/01/09 14:17:44;;;;;;;;;;;;;;;-0.01;89.81;98879.09;4978055;28;19968;-88
2022/01/09 14:20:12;;;;;;;;;;;;;;;-0.02;89.48;98882.19;4980411;28;19918;-88
2022/01/09 14:22:42;;;;;;;;;;;;;;;-0.02;89.45;98885.72;4963189;28;19946;-88
2022/01/09 14:25:09;;;;;;;;;;;;;;;-0.05;89.30;98881.06;4961221;28;19918;-89
2022/01/09 14:27:35;;;;;;;;;;;;;;;-0.03;89.97;98886.88;4977390;28;20315;-88
2022/01/09 14:30:02;;;;;;;;;;;;;;;-0.02;90.29;98893.88;4960903;28;19914;-87
2022/01/09 14:32:27;;;;;;;;;;;;;;;0.03;90.75;98897.38;4973912;28;19922;-87
2022/01/09 14:34:55;;;;;;;;;;;;;;;0.06;91.27;98902.03;4957889;28;19929;-88
2022/01/09 14:37:20;;;;;;;;;;;;;;;0.10;91.21;98891.91;4958812;28;19921;-87
2022/01/09 14:39:46;;;;;;;;;;;;;;;0.02;91.42;98899.31;4974501;28;19922;-88
2022/01/09 14:42:11;;;;;;;;;;;;;;;-0.04;91.67;98890.75;4959583;28;19922;-87
2022/01/09 14:44:37;;;;;;;;;;;;;;;-0.09;91.68;98896.63;4963065;28;19925;-87
2022/01/09 14:47:02;;;;;;;;;;;;;;;-0.10;92.31;98900.53;4961593;28;19976;-87
2022/01/09 14:49:28;;;;;;;;;;;;;;;-0.11;92.80;98896.25;4947560;28;19971;-88
2022/01/09 14:51:55;;;;;;;;;;;;;;;-0.10;93.04;98894.28;4977344;28;19914;-88
2022/01/09 14:54:20;;;;;;;;;;;;;;;-0.14;93.15;98899.75;4963270;28;20417;-87
2022/01/09 14:56:46;;;;;;;;;;;;;;;-0.15;92.72;98900.91;4961819;28;19965;-88
2022/01/09 14:59:13;;;;;;;;;;;;;;;-0.15;93.16;98909.09;4965275;28;19929;-87
2022/01/09 15:01:39;;;;;;;;;;;;;;;-0.17;92.98;98906.00;4962478;28;20012;-87
2022/01/09 15:04:04;;;;;;;;;;;;;;;-0.17;93.06;98911.44;4965619;28;20412;-87
2022/01/09 15:06:30;;;;;;;;;;;;;;;-0.19;93.11;98913.78;4964413;28;19945;-88
2022/01/09 15:08:56;;;;;;;;;;;;;;;-0.15;93.25;98914.53;4965161;28;19977;-88
2022/01/09 15:11:21;;;;;;;;;;;;;;;-0.17;93.67;98911.44;4960864;28;19928;-88
2022/01/09 15:13:47;;;;;;;;;;;;;;;-0.20;93.51;98901.31;4966388;28;19983;-88
2022/01/09 15:16:12;;;;;;;;;;;;;;;-0.22;93.97;98913.78;4978588;28;19925;-88
2022/01/09 15:18:37;;;;;;;;;;;;;;;-0.22;93.79;98903.66;4980602;28;19997;-88
2022/01/09 15:21:03;;;;;;;;;;;;;;;-0.20;93.74;98906.75;4965433;28;19914;-83
2022/01/09 15:23:28;;;;;;;;;;;;;;;-0.19;93.62;98913.00;4967630;28;19926;-89
2022/01/09 15:25:54;;;;;;;;;;;;;;;-0.20;93.33;98923.13;4980430;28;19924;-88
2022/01/09 15:28:21;;;;;;;;;;;;;;;-0.21;92.80;98928.97;4950286;28;19977;-87
2022/01/09 15:30:46;;;;;;;;;;;;;;;-0.20;92.94;98933.25;4981397;28;19918;-88
2022/01/09 15:33:12;;;;;;;;;;;;;;;-0.23;93.04;98934.81;4964695;28;19918;-87
2022/01/09 15:35:38;;;;;;;;;;;;;;;-0.22;93.07;98925.47;4964335;28;19973;-86
2022/01/09 15:38:03;;;;;;;;;;;;;;;-0.22;92.95;98924.69;4964967;28;19945;-86
2022/01/09 15:40:29;;;;;;;;;;;;;;;-0.23;93.03;98929.34;4964407;28;20021;-87
2022/01/09 15:42:54;;;;;;;;;;;;;;;-0.24;93.16;98935.22;4964154;28;20379;-87
2022/01/09 15:45:20;;;;;;;;;;;;;;;-0.24;93.38;98935.97;4963320;28;19918;-86
2022/01/09 15:47:45;;;;;;;;;;;;;;;-0.24;93.73;98946.88;4963871;28;20014;-87
2022/01/09 15:50:11;;;;;;;;;;;;;;;-0.25;93.90;98942.63;4966214;28;19972;-86
2022/01/09 15:52:36;;;;;;;;;;;;;;;-0.25;94.31;98956.22;4966875;28;19922;-87
2022/01/09 15:55:02;;;;;;;;;;;;;;;-0.23;94.34;98951.16;4963397;28;19925;-87
2022/01/09 15:57:31;;;;;;;;;;;;;;;-0.21;94.60;98954.28;4965269;28;19915;-87
2022/01/09 15:59:57;;;;;;;;;;;;;;;-0.20;95.11;98961.28;4981173;28;20391;-87
2022/01/09 16:02:22;;;;;;;;;;;;;;;-0.21;95.42;98959.75;4983886;28;19917;-86
2022/01/09 16:04:47;;;;;;;;;;;;;;;-0.21;95.91;98973.38;4977876;28;19930;-86
2022/01/09 16:07:13;;;;;;;;;;;;;;;-0.18;96.01;98974.50;4962170;28;20355;-86
2022/01/09 16:09:38;;;;;;;;;;;;;;;-0.17;96.51;98984.25;4989333;28;19918;-86
2022/01/09 16:12:08;;;;;;;;;;;;;;;-0.16;96.80;98978.41;4989679;28;20342;-86
2022/01/09 16:14:39;;;;;;;;;;;;;;;-0.18;97.08;98986.19;4973042;28;19925;-84
2022/01/09 16:17:04;;;;;;;;;;;;;;;-0.17;97.12;98987.75;4989057;28;19926;-85